createdAt,value
2022-11-05T00:02:24.317Z,100126.97
2022-11-05T00:05:09.712Z,100134.91
2022-11-05T00:08:34.972Z,100130.88
2022-11-05T00:24:33.400Z,100158.66
2022-11-05T00:27:56.238Z,100163.00
2022-11-05T00:34:35.905Z,100157.69
2022-11-05T00:37:27.745Z,100154.44
2022-11-05T00:40:07.529Z,100152.81
2022-11-05T00:43:30.444Z,100157.19
2022-11-05T00:45:57.123Z,100164.94
2022-11-05T00:48:53.948Z,100172.81
2022-11-05T00:51:20.741Z,100170.22
2022-11-05T01:00:24.891Z,100180.91
2022-11-05T01:03:05.982Z,100171.59
2022-11-05T01:05:47.628Z,100177.13
2022-11-05T01:09:02.002Z,100174.47
2022-11-05T01:11:42.847Z,100181.47
2022-11-05T01:14:34.134Z,100183.16
2022-11-05T01:20:04.645Z,100197.72
2022-11-05T01:22:40.248Z,100197.63
2022-11-05T01:25:57.377Z,100197.72
2022-11-05T01:29:52.396Z,100198.88
2022-11-05T01:36:55.005Z,100202.69
2022-11-05T01:39:45.311Z,100201.25
2022-11-05T01:42:33.994Z,100202.69
2022-11-05T01:45:36.345Z,100210.94
2022-11-05T01:48:33.208Z,100219.66
2022-11-05T01:51:15.989Z,100216.13
2022-11-05T01:54:35.879Z,100217.72
2022-11-05T01:57:06.647Z,100221.75
2022-11-05T01:59:39.398Z,100221.84
2022-11-05T02:03:04.381Z,100216.63
2022-11-05T02:05:48.471Z,100225.34
2022-11-05T02:09:16.155Z,100226.63
2022-11-05T02:14:54.357Z,100229.69
2022-11-05T02:17:49.133Z,100241.16
2022-11-05T02:20:46.839Z,100246.56
2022-11-05T02:23:45.488Z,100251.00
2022-11-05T02:26:33.950Z,100250.25
2022-11-05T02:29:17.585Z,100253.28
2022-11-05T02:32:18.192Z,100252.44
2022-11-05T02:35:09.579Z,100266.00
2022-11-05T02:37:41.163Z,100266.00
2022-11-05T02:40:21.786Z,100273.41
2022-11-05T02:42:55.231Z,100277.66
2022-11-05T02:45:39.256Z,100274.59
2022-11-05T02:48:35.246Z,100284.06
2022-11-05T02:51:12.289Z,100279.34
2022-11-05T02:53:46.371Z,100277.66
2022-11-05T02:56:18.634Z,100283.91
2022-11-05T02:58:45.461Z,100283.34
2022-11-05T03:01:12.777Z,100291.47
2022-11-05T03:03:48.252Z,100292.59
2022-11-05T03:06:33.746Z,100286.47
2022-11-05T03:09:10.074Z,100296.59
2022-11-05T03:11:58.766Z,100309.06
2022-11-05T03:14:45.962Z,100308.22
2022-11-05T03:17:31.559Z,100303.41
2022-11-05T03:20:15.285Z,100314.31
2022-11-05T03:22:51.377Z,100321.09
2022-11-05T03:25:20.854Z,100321.47
2022-11-05T03:27:49.343Z,100325.75
2022-11-05T03:30:18.636Z,100335.66
2022-11-05T03:33:03.762Z,100329.31
2022-11-05T03:35:35.218Z,100328.69
2022-11-05T03:38:05.613Z,100338.50
2022-11-05T03:40:33.981Z,100340.00
2022-11-05T03:43:01.834Z,100337.44
2022-11-05T03:45:47.736Z,100344.53
2022-11-05T03:48:15.728Z,100340.09
2022-11-05T03:50:59.666Z,100348.22
2022-11-05T03:53:28.916Z,100345.47
2022-11-05T03:56:14.307Z,100354.81
2022-11-05T03:58:43.095Z,100349.63
2022-11-05T04:17:07.426Z,100378.69
2022-11-05T04:20:29.082Z,100376.25
2022-11-05T04:29:56.452Z,100391.28
2022-11-05T04:32:23.131Z,100399.28
2022-11-05T04:34:49.860Z,100395.31
2022-11-05T04:37:19.304Z,100392.75
2022-11-05T04:39:49.007Z,100386.09
2022-11-05T04:42:30.680Z,100394.47
2022-11-05T04:45:00.314Z,100395.66
2022-11-05T04:48:09.917Z,100399.34
2022-11-05T04:50:35.622Z,100404.38
2022-11-05T04:53:04.825Z,100403.97
2022-11-05T05:02:23.035Z,100409.81
2022-11-05T05:05:02.787Z,100411.13
2022-11-05T05:07:48.183Z,100414.88
2022-11-05T05:10:49.381Z,100407.38
2022-11-05T05:13:54.362Z,100416.31
2022-11-05T05:16:36.831Z,100406.75
2022-11-05T05:21:51.973Z,100411.63
2022-11-05T05:24:25.053Z,100421.00
2022-11-05T05:26:51.795Z,100416.69
2022-11-05T05:29:19.033Z,100417.09
2022-11-05T05:31:45.757Z,100419.75
2022-11-05T05:34:14.907Z,100423.50
2022-11-05T05:36:41.556Z,100425.38
2022-11-05T05:39:11.008Z,100438.00
2022-11-05T05:41:37.904Z,100440.03
2022-11-05T05:44:05.737Z,100442.59
2022-11-05T05:46:32.397Z,100447.03
2022-11-05T05:48:59.047Z,100448.75
2022-11-05T05:51:25.774Z,100457.59
2022-11-05T05:53:53.844Z,100460.44
2022-11-05T05:56:20.797Z,100458.72
2022-11-05T05:58:47.626Z,100465.03
2022-11-05T06:01:19.226Z,100463.66
2022-11-05T06:03:46.617Z,100474.16
2022-11-05T06:06:15.046Z,100484.22
2022-11-05T06:08:42.389Z,100475.41
2022-11-05T06:11:11.375Z,100479.09
2022-11-05T06:13:38.537Z,100486.78
2022-11-05T06:16:09.378Z,100495.97
2022-11-05T06:18:36.134Z,100499.44
2022-11-05T06:21:12.893Z,100506.09
2022-11-05T06:23:41.826Z,100512.31
2022-11-05T06:26:17.922Z,100515.03
2022-11-05T06:28:45.379Z,100520.31
2022-11-05T06:31:13.434Z,100516.53
2022-11-05T06:33:40.713Z,100513.94
2022-11-05T06:36:08.596Z,100517.53
2022-11-05T06:38:36.582Z,100531.22
2022-11-05T06:41:09.880Z,100542.72
2022-11-05T06:43:37.163Z,100547.28
2022-11-05T06:46:04.002Z,100551.09
2022-11-05T06:48:30.756Z,100558.28
2022-11-05T06:50:57.440Z,100549.41
2022-11-05T06:53:24.168Z,100565.28
2022-11-05T06:55:50.815Z,100566.66
2022-11-05T06:58:17.446Z,100569.59
2022-11-05T07:00:44.152Z,100568.44
2022-11-05T07:03:12.276Z,100562.91
2022-11-05T07:05:43.787Z,100564.44
2022-11-05T07:08:10.612Z,100567.72
2022-11-05T07:10:37.287Z,100578.28
2022-11-05T07:13:08.110Z,100578.47
2022-11-05T07:15:36.696Z,100575.19
2022-11-05T07:18:04.127Z,100582.88
2022-11-05T07:20:33.941Z,100578.47
2022-11-05T07:23:05.995Z,100590.53
2022-11-05T07:25:33.869Z,100595.03
2022-11-05T07:28:01.225Z,100597.84
2022-11-05T07:30:28.079Z,100609.97
2022-11-05T07:32:55.174Z,100601.41
2022-11-05T07:35:22.263Z,100609.13
2022-11-05T07:37:51.046Z,100612.94
2022-11-05T07:40:19.417Z,100614.78
2022-11-05T07:42:48.046Z,100615.34
2022-11-05T07:45:17.625Z,100614.34
2022-11-05T07:47:52.115Z,100608.50
2022-11-05T07:50:20.829Z,100611.06
2022-11-05T07:52:48.787Z,100601.34
2022-11-05T07:55:18.752Z,100609.97
2022-11-05T07:57:47.443Z,100612.94
2022-11-05T08:00:20.358Z,100605.16
2022-11-05T08:03:04.019Z,100624.69
2022-11-05T08:05:36.818Z,100624.84
2022-11-05T08:08:03.917Z,100631.78
2022-11-05T08:10:30.579Z,100627.16
2022-11-05T08:12:57.289Z,100630.28
2022-11-05T08:15:24.305Z,100646.06
2022-11-05T08:18:00.702Z,100651.13
2022-11-05T08:20:28.099Z,100647.72
2022-11-05T08:22:55.345Z,100646.53
2022-11-05T08:25:29.663Z,100659.69
2022-11-05T08:27:58.969Z,100659.75
2022-11-05T08:30:25.916Z,100654.47
2022-11-05T08:33:00.535Z,100665.13
2022-11-05T08:35:27.857Z,100670.09
2022-11-05T08:37:59.103Z,100666.78
2022-11-05T08:40:28.950Z,100659.13
2022-11-05T08:43:00.064Z,100682.72
2022-11-05T08:45:28.873Z,100681.91
2022-11-05T08:47:59.919Z,100684.75
2022-11-05T08:50:28.754Z,100678.66
2022-11-05T08:52:55.447Z,100676.19
2022-11-05T08:55:28.533Z,100670.41
2022-11-05T08:58:03.513Z,100675.53
2022-11-05T09:00:32.529Z,100680.44
2022-11-05T09:03:00.986Z,100681.38
2022-11-05T09:05:28.762Z,100683.41
2022-11-05T09:08:00.919Z,100689.16
2022-11-05T09:10:32.128Z,100697.16
2022-11-05T09:12:59.659Z,100702.66
2022-11-05T09:15:28.181Z,100698.47
2022-11-05T09:18:00.477Z,100711.31
2022-11-05T09:20:27.209Z,100708.13
2022-11-05T09:22:57.345Z,100710.19
2022-11-05T09:25:24.088Z,100715.19
2022-11-05T09:27:50.773Z,100721.00
2022-11-05T09:30:20.674Z,100719.28
2022-11-05T09:32:48.880Z,100719.13
2022-11-05T09:35:15.720Z,100724.28
2022-11-05T09:37:42.514Z,100726.47
2022-11-05T09:40:15.860Z,100727.41
2022-11-05T09:42:46.267Z,100727.31
2022-11-05T09:45:19.594Z,100737.81
2022-11-05T09:47:58.212Z,100732.34
2022-11-05T09:50:34.395Z,100732.56
2022-11-05T09:53:01.835Z,100733.22
2022-11-05T09:55:49.836Z,100734.94
2022-11-05T09:58:28.982Z,100746.03
2022-11-05T10:00:57.602Z,100738.28
2022-11-05T10:03:26.367Z,100745.03
2022-11-05T10:06:00.460Z,100745.88
2022-11-05T10:08:37.992Z,100748.19
2022-11-05T10:11:33.162Z,100739.66
2022-11-05T10:14:07.707Z,100747.78
2022-11-05T10:16:41.084Z,100742.81
2022-11-05T10:19:17.216Z,100747.34
2022-11-05T10:22:05.710Z,100749.53
2022-11-05T10:24:30.595Z,100747.97
2022-11-05T10:26:58.360Z,100746.78
2022-11-05T10:29:29.490Z,100746.94
2022-11-05T10:31:58.131Z,100748.91
2022-11-05T10:34:29.441Z,100754.63
2022-11-05T10:36:56.169Z,100756.03
2022-11-05T10:39:24.478Z,100756.06
2022-11-05T10:42:16.105Z,100755.25
2022-11-05T10:44:52.570Z,100758.41
2022-11-05T10:47:35.589Z,100763.88
2022-11-05T10:50:05.546Z,100764.47
2022-11-05T10:52:34.398Z,100774.25
2022-11-05T10:55:04.525Z,100759.47
2022-11-05T10:57:39.534Z,100765.16
2022-11-05T11:00:15.476Z,100766.38
2022-11-05T11:02:54.416Z,100777.09
2022-11-05T11:05:32.883Z,100781.63
2022-11-05T11:08:11.631Z,100768.63
2022-11-05T11:10:53.153Z,100776.31
2022-11-05T11:13:46.205Z,100774.69
2022-11-05T11:16:21.510Z,100771.31
2022-11-05T11:18:56.519Z,100785.84
2022-11-05T11:21:23.826Z,100774.56
2022-11-05T11:23:54.768Z,100776.28
2022-11-05T11:26:22.121Z,100777.41
2022-11-05T11:28:56.637Z,100781.38
2022-11-05T11:31:25.926Z,100782.94
2022-11-05T11:34:01.210Z,100779.81
2022-11-05T11:36:34.833Z,100781.88
2022-11-05T11:39:04.906Z,100779.22
2022-11-05T11:41:35.216Z,100787.22
2022-11-05T11:44:07.685Z,100777.72
2022-11-05T11:46:35.570Z,100778.38
2022-11-05T11:49:02.876Z,100779.16
2022-11-05T11:51:40.721Z,100781.66
2022-11-05T11:54:19.903Z,100786.53
2022-11-05T11:56:48.477Z,100768.59
2022-11-05T11:59:46.820Z,100774.78
2022-11-05T12:02:44.491Z,100784.88
2022-11-05T12:05:15.783Z,100779.56
2022-11-05T12:07:53.007Z,100778.72
2022-11-05T12:10:22.733Z,100791.50
2022-11-05T12:13:07.488Z,100790.53
2022-11-05T12:15:46.967Z,100795.66
2022-11-05T12:18:30.249Z,100776.28
2022-11-05T12:21:34.670Z,100778.59
2022-11-05T12:24:10.604Z,100785.66
2022-11-05T12:26:53.833Z,100799.69
2022-11-05T12:29:34.486Z,100786.94
2022-11-05T12:32:33.386Z,100790.13
2022-11-05T12:35:33.248Z,100793.63
2022-11-05T12:38:27.611Z,100784.56
2022-11-05T12:41:12.745Z,100791.38
2022-11-05T12:43:53.604Z,100780.72
2022-11-05T12:46:29.480Z,100786.63
2022-11-05T12:49:22.335Z,100784.06
2022-11-05T12:52:45.627Z,100790.72
2022-11-05T12:55:21.050Z,100785.69
2022-11-05T12:57:50.323Z,100781.50
2022-11-05T13:00:19.916Z,100804.69
2022-11-05T13:03:28.699Z,100805.09
2022-11-05T13:09:58.027Z,100789.13
2022-11-05T13:13:13.935Z,100779.81
2022-11-05T13:15:52.133Z,100782.84
2022-11-05T13:25:38.102Z,100791.50
2022-11-05T13:28:17.175Z,100804.84
2022-11-05T13:30:48.988Z,100804.59
2022-11-05T13:33:23.179Z,100803.00
2022-11-05T13:36:58.470Z,100814.00
2022-11-05T13:39:38.370Z,100814.88
2022-11-05T13:42:34.213Z,100814.78
2022-11-05T13:45:27.493Z,100819.66
2022-11-05T13:48:56.163Z,100824.91
2022-11-05T13:51:39.630Z,100827.44
2022-11-05T13:54:30.655Z,100841.34
2022-11-05T13:57:01.212Z,100828.31
2022-11-05T13:59:49.912Z,100829.25
2022-11-05T14:02:23.060Z,100832.28
2022-11-05T14:04:57.997Z,100834.28
2022-11-05T14:07:30.512Z,100834.50
2022-11-05T14:10:16.205Z,100830.31
2022-11-05T14:12:47.830Z,100833.97
2022-11-05T14:15:21.537Z,100840.06
2022-11-05T14:18:42.633Z,100830.19
2022-11-05T14:21:28.056Z,100841.72
2022-11-05T14:24:14.775Z,100836.38
2022-11-05T14:26:41.443Z,100847.16
2022-11-05T14:29:21.853Z,100838.50
2022-11-05T14:32:08.988Z,100836.56
2022-11-05T14:34:43.676Z,100835.53
2022-11-05T14:37:59.273Z,100839.16
2022-11-05T14:40:36.448Z,100840.41
2022-11-05T14:43:07.490Z,100856.06
2022-11-05T14:49:09.788Z,100847.00
2022-11-05T14:51:44.266Z,100847.94
2022-11-05T14:54:22.070Z,100859.38
2022-11-05T14:56:56.881Z,100853.56
2022-11-05T14:59:24.595Z,100865.88
2022-11-05T15:01:58.363Z,100866.09
2022-11-05T15:04:35.880Z,100867.47
2022-11-05T15:07:05.976Z,100865.94
2022-11-05T15:10:11.555Z,100873.38
2022-11-05T15:12:58.042Z,100868.06
2022-11-05T15:15:27.838Z,100867.97
2022-11-05T15:18:02.200Z,100863.78
2022-11-05T15:20:39.936Z,100864.16
2022-11-05T15:23:11.139Z,100868.53
2022-11-05T15:25:58.239Z,100868.63
2022-11-05T15:28:41.180Z,100868.81
2022-11-05T15:31:13.942Z,100874.06
2022-11-05T15:33:47.890Z,100874.13
2022-11-05T15:36:26.928Z,100881.56
2022-11-05T15:39:23.050Z,100887.97
2022-11-05T15:41:41.640Z,100884.84
2022-11-05T15:44:23.783Z,100880.50
2022-11-05T15:47:05.437Z,100885.34
2022-11-05T15:49:32.152Z,100882.66
2022-11-05T15:51:58.813Z,100886.44
2022-11-05T15:54:30.125Z,100894.69
2022-11-05T15:56:59.250Z,100883.38
2022-11-05T15:59:27.370Z,100887.75
2022-11-05T16:01:57.974Z,100884.44
2022-11-05T16:04:33.888Z,100891.75
2022-11-05T16:07:08.146Z,100877.69
2022-11-05T16:09:37.247Z,100883.84
2022-11-05T16:12:19.590Z,100888.84
2022-11-05T16:15:08.537Z,100882.88
2022-11-05T16:17:54.176Z,100891.31
2022-11-05T16:20:26.334Z,100891.75
2022-11-05T16:22:56.343Z,100888.91
2022-11-05T16:25:28.816Z,100894.66
2022-11-05T16:27:56.808Z,100896.63
2022-11-05T16:30:23.972Z,100894.84
2022-11-05T16:32:50.946Z,100899.28
2022-11-05T16:35:25.114Z,100897.00
2022-11-05T16:37:52.794Z,100899.91
2022-11-05T16:40:24.276Z,100894.38
2022-11-05T16:42:52.514Z,100891.53
2022-11-05T16:45:25.295Z,100903.88
2022-11-05T16:47:55.763Z,100904.88
2022-11-05T16:50:30.599Z,100901.53
2022-11-05T16:52:57.254Z,100914.81
2022-11-05T16:55:23.995Z,100910.44
2022-11-05T16:57:53.616Z,100919.72
2022-11-05T17:00:21.252Z,100917.84
2022-11-05T17:02:48.456Z,100921.56
2022-11-05T17:05:21.504Z,100928.50
2022-11-05T17:07:49.403Z,100929.53
2022-11-05T17:10:20.027Z,100924.31
2022-11-05T17:12:47.043Z,100944.19
2022-11-05T17:15:26.016Z,100947.88
2022-11-05T17:17:54.139Z,100943.66
2022-11-05T17:20:27.430Z,100957.94
2022-11-05T17:22:55.160Z,100961.59
2022-11-05T17:25:22.021Z,100962.63
2022-11-05T17:27:48.665Z,100958.53
2022-11-05T17:30:15.854Z,100959.78
2022-11-05T17:32:42.555Z,100943.84
2022-11-05T17:35:09.698Z,100950.88
2022-11-05T17:37:36.482Z,100969.47
2022-11-05T17:40:05.279Z,100968.66
2022-11-05T17:42:31.975Z,100975.00
2022-11-05T17:44:58.624Z,100977.06
2022-11-05T17:47:27.077Z,100976.09
2022-11-05T17:49:53.730Z,100973.69
2022-11-05T17:52:20.369Z,100976.34
2022-11-05T17:54:47.636Z,100981.66
2022-11-05T17:57:15.247Z,100982.59
2022-11-05T17:59:42.180Z,100985.41
2022-11-05T18:02:11.357Z,100984.78
2022-11-05T18:04:38.640Z,100989.31
2022-11-05T18:07:06.426Z,100995.56
2022-11-05T18:09:33.230Z,100994.78
2022-11-05T18:11:59.863Z,100991.41
2022-11-05T18:14:27.570Z,100994.06
2022-11-05T18:16:59.245Z,100988.50
2022-11-05T18:19:29.752Z,100989.63
2022-11-05T18:21:56.430Z,100994.81
2022-11-05T18:24:25.543Z,100990.72
2022-11-05T18:26:52.443Z,100995.09
2022-11-05T18:29:19.123Z,100989.03
2022-11-05T18:31:45.902Z,100984.75
2022-11-05T18:34:12.588Z,100975.94
2022-11-05T18:36:39.348Z,100984.66
2022-11-05T18:39:06.818Z,100991.75
2022-11-05T18:41:33.689Z,100982.16
2022-11-05T18:44:01.766Z,100983.78
2022-11-05T18:46:56.607Z,100982.03
2022-11-05T18:49:16.181Z,100982.41
2022-11-05T18:51:42.840Z,100989.50
2022-11-05T18:54:10.045Z,100983.25
2022-11-05T18:56:37.212Z,100973.75
2022-11-05T18:59:34.633Z,100973.63
2022-11-05T19:01:50.742Z,100983.41
2022-11-05T19:04:17.546Z,100972.19
2022-11-05T19:06:44.254Z,100984.59
2022-11-05T19:09:12.129Z,100993.63
2022-11-05T19:11:40.531Z,100997.44
2022-11-05T19:14:07.866Z,100993.63
2022-11-05T19:16:34.930Z,100986.81
2022-11-05T19:19:03.767Z,100992.44
2022-11-05T19:21:31.191Z,100996.66
2022-11-05T19:24:01.538Z,100988.72
2022-11-05T19:26:29.378Z,100996.09
2022-11-05T19:29:00.472Z,100998.97
2022-11-05T19:31:27.633Z,101009.47
2022-11-05T19:33:55.081Z,101006.78
2022-11-05T19:36:23.082Z,100996.88
2022-11-05T19:38:56.130Z,101004.75
2022-11-05T19:41:23.928Z,101005.78
2022-11-05T19:43:51.274Z,100998.88
2022-11-05T19:46:19.291Z,101008.56
2022-11-05T19:48:46.584Z,100989.81
2022-11-05T19:51:16.284Z,101000.22
2022-11-05T19:53:43.459Z,101003.69
2022-11-05T19:56:22.201Z,101002.72
2022-11-05T19:58:49.252Z,101001.09
2022-11-05T20:01:17.412Z,101002.88
2022-11-05T20:03:44.884Z,101001.25
2022-11-05T20:06:15.095Z,101004.06
2022-11-05T20:08:59.827Z,100997.19
2022-11-05T20:11:29.622Z,100999.50
2022-11-05T20:13:58.764Z,100998.94
2022-11-05T20:16:29.083Z,101004.88
2022-11-05T20:18:57.264Z,101006.53
2022-11-05T20:21:24.011Z,101008.16
2022-11-05T20:23:50.756Z,101004.59
2022-11-05T20:26:17.492Z,101009.00
2022-11-05T20:28:44.357Z,101009.00
2022-11-05T20:31:14.584Z,101008.94
2022-11-05T20:33:41.802Z,101015.31
2022-11-05T20:36:13.496Z,101014.53
2022-11-05T20:38:40.413Z,101025.34
2022-11-05T20:41:12.701Z,101024.41
2022-11-05T20:43:43.612Z,101024.63
2022-11-05T20:46:15.276Z,101020.72
2022-11-05T20:48:42.761Z,101030.22
2022-11-05T20:51:19.179Z,101029.44
2022-11-05T20:53:46.583Z,101027.72
2022-11-05T20:56:22.760Z,101021.50
2022-11-05T20:58:49.935Z,101021.66
2022-11-05T21:01:17.660Z,101027.88
2022-11-05T21:03:45.529Z,101019.28
2022-11-05T21:06:13.005Z,101025.66
2022-11-05T21:08:39.832Z,101021.34
2022-11-05T21:11:07.326Z,101026.88
2022-11-05T21:13:36.764Z,101031.31
2022-11-05T21:16:06.156Z,101035.03
2022-11-05T21:18:34.907Z,101028.00
2022-11-05T21:21:08.322Z,101032.47
2022-11-05T21:23:35.600Z,101029.88
2022-11-05T21:26:06.404Z,101033.44
2022-11-05T21:28:33.142Z,101044.59
2022-11-05T21:31:01.916Z,101039.09
2022-11-05T21:33:28.727Z,101038.31
2022-11-05T21:35:55.889Z,101043.72
2022-11-05T21:38:22.540Z,101038.59
2022-11-05T21:40:49.263Z,101037.88
2022-11-05T21:43:16.182Z,101023.88
2022-11-05T21:45:44.350Z,101027.44
2022-11-05T21:48:11.808Z,101026.69
2022-11-05T21:50:57.981Z,101023.22
2022-11-05T21:53:43.501Z,101035.72
2022-11-05T21:56:40.803Z,101030.72
2022-11-05T21:59:30.355Z,101036.94
2022-11-05T22:02:01.807Z,101031.97
2022-11-05T22:04:33.750Z,101033.81
2022-11-05T22:07:00.515Z,101034.69
2022-11-05T22:09:27.778Z,101036.34
2022-11-05T22:11:55.049Z,101038.09
2022-11-05T22:14:23.549Z,101033.69
2022-11-05T22:16:50.446Z,101032.72
2022-11-05T22:19:17.763Z,101033.63
2022-11-05T22:21:44.560Z,101024.88
2022-11-05T22:24:11.285Z,101022.47
2022-11-05T22:26:39.016Z,101027.94
2022-11-05T22:29:06.351Z,101028.00
2022-11-05T22:31:36.191Z,101036.09
2022-11-05T22:34:04.544Z,101023.66
2022-11-05T22:36:32.300Z,101031.78
2022-11-05T22:38:59.063Z,101022.06
2022-11-05T22:41:25.871Z,101025.59
2022-11-05T22:43:52.585Z,101026.56
2022-11-05T22:46:22.380Z,101022.22
2022-11-05T22:48:49.693Z,101021.38
2022-11-05T22:51:22.055Z,101020.34
2022-11-05T22:53:49.204Z,101025.69
2022-11-05T22:56:18.774Z,101024.03
2022-11-05T22:58:47.461Z,101033.91
2022-11-05T23:01:15.809Z,101028.81
2022-11-05T23:03:43.987Z,101030.53
2022-11-05T23:06:33.522Z,101035.91
2022-11-05T23:09:19.139Z,101040.34
2022-11-05T23:11:48.664Z,101031.47
2022-11-05T23:14:15.795Z,101032.25
2022-11-05T23:17:12.449Z,101024.47
2022-11-05T23:19:58.391Z,101030.69
2022-11-05T23:22:47.284Z,101019.16
2022-11-05T23:25:17.370Z,101025.31
2022-11-05T23:27:45.821Z,101030.69
2022-11-05T23:30:18.332Z,101026.28
2022-11-05T23:32:45.230Z,101020.94
2022-11-05T23:35:12.294Z,101021.09
2022-11-05T23:37:57.921Z,101026.28
2022-11-05T23:40:27.738Z,101024.63
2022-11-05T23:43:17.512Z,101030.31
2022-11-05T23:46:26.133Z,101024.03
2022-11-05T23:49:46.978Z,101007.19
2022-11-05T23:56:13.308Z,101009.91
2022-11-05T23:59:57.208Z,101017.09
